| time (UTC) | temp C | wind direction | speed KPH | gust KPH | rain 1hr cm | rain 24hr cm | rain mn cm | humidity % | barometer mb |
| 20260507080003 | 7 | 0 | 0.0 | 0.0 | 0.00 | 0.46 | 0.00 | 51 | 1020.3 |
| 20260507075402 | 7 | 0 | 0.0 | 0.0 | 0.00 | 0.46 | 0.00 | 50 | 1020.3 |
| 20260507074503 | 8 | 0 | 0.0 | 0.0 | 0.00 | 0.48 | 0.00 | 49 | 1020.4 |
| 20260507073602 | 8 | 0 | 0.0 | 0.0 | 0.00 | 0.48 | 0.00 | 47 | 1020.5 |
| 20260507072702 | 8 | 0 | 0.0 | 0.0 | 0.00 | 0.48 | 0.00 | 46 | 1020.3 |
| 20260507071802 | 8 | 0 | 0.0 | 0.0 | 0.00 | 0.48 | 0.00 | 45 | 1020.3 |
| 20260507070902 | 8 | 0 | 0.0 | 0.0 | 0.00 | 0.48 | 0.00 | 45 | 1020.3 |
| 20260507070024 | 8 | 0 | 0.0 | 0.0 | 0.00 | 0.48 | 0.00 | 45 | 1020.3 |
| 20260507065403 | 8 | 0 | 0.0 | 0.0 | 0.00 | 0.48 | 0.00 | 45 | 1020.3 |
| 20260507064503 | 8 | 0 | 0.0 | 0.0 | 0.00 | 0.48 | 0.00 | 45 | 1020.3 |
| 20260507063602 | 9 | 0 | 0.0 | 0.0 | 0.00 | 0.48 | 0.00 | 44 | 1020.2 |
| 20260507062703 | 9 | 0 | 0.0 | 0.0 | 0.00 | 0.48 | 0.00 | 44 | 1020.3 |
| 20260507061802 | 9 | 51 | 0.0 | 1.6 | 0.00 | 0.48 | 0.00 | 44 | 1020.3 |
| 20260507060902 | 9 | 0 | 0.0 | 0.0 | 0.00 | 0.48 | 0.00 | 44 | 1020.2 |
| 20260507060004 | 9 | 56 | 0.0 | 1.6 | 0.00 | 0.48 | 0.00 | 44 | 1020.2 |
| 20260507055403 | 9 | 0 | 0.0 | 0.0 | 0.00 | 0.48 | 0.48 | 45 | 1020.3 |
| 20260507054524 | 9 | 0 | 0.0 | 0.0 | 0.00 | 0.48 | 0.48 | 45 | 1020.2 |
| 20260507053602 | 9 | 0 | 0.0 | 0.0 | 0.00 | 0.48 | 0.48 | 45 | 1020.2 |
| 20260507052723 | 9 | 0 | 0.0 | 0.0 | 0.00 | 0.48 | 0.48 | 44 | 1020.2 |
| 20260507051823 | 10 | 0 | 0.0 | 0.0 | 0.00 | 0.48 | 0.48 | 44 | 1020.2 |
| 20260507050902 | 10 | 0 | 0.0 | 0.0 | 0.00 | 0.48 | 0.48 | 43 | 1020.2 |
| 20260507050003 | 10 | 56 | 0.0 | 1.6 | 0.00 | 0.48 | 0.48 | 40 | 1020.1 |
| 20260507045423 | 10 | 62 | 0.0 | 1.6 | 0.00 | 0.48 | 0.48 | 40 | 1020.1 |
| 20260507044503 | 11 | 81 | 0.0 | 1.6 | 0.00 | 0.48 | 0.48 | 40 | 1020.0 |
| 20260507043602 | 11 | 101 | 0.0 | 3.2 | 0.00 | 0.48 | 0.48 | 39 | 1020.0 |
| 20260507042702 | 11 | 135 | 0.0 | 1.6 | 0.00 | 0.48 | 0.48 | 39 | 1020.0 |
| 20260507041803 | 11 | 135 | 0.0 | 1.6 | 0.00 | 0.48 | 0.48 | 38 | 1020.0 |
| 20260507040903 | 11 | 0 | 0.0 | 0.0 | 0.00 | 0.48 | 0.48 | 39 | 1020.0 |
| 20260507040004 | 11 | 0 | 0.0 | 0.0 | 0.00 | 0.48 | 0.48 | 38 | 1020.1 |
| 20260507035423 | 11 | 0 | 0.0 | 0.0 | 0.00 | 0.48 | 0.48 | 38 | 1020.0 |
| 20260507034503 | 11 | 0 | 0.0 | 0.0 | 0.00 | 0.48 | 0.48 | 37 | 1019.8 |
| 20260507033603 | 12 | 0 | 0.0 | 0.0 | 0.00 | 0.48 | 0.48 | 36 | 1019.7 |
| 20260507032703 | 12 | 116 | 0.0 | 3.2 | 0.00 | 0.48 | 0.48 | 36 | 1019.5 |
| 20260507031802 | 12 | 0 | 0.0 | 0.0 | 0.00 | 0.48 | 0.48 | 36 | 1019.6 |
| 20260507030903 | 12 | 52 | 0.0 | 1.6 | 0.00 | 0.48 | 0.48 | 34 | 1019.4 |
| 20260507030003 | 13 | 301 | 0.0 | 1.6 | 0.00 | 0.48 | 0.48 | 33 | 1019.4 |
| 20260507025426 | 13 | 301 | 0.0 | 1.6 | 0.00 | 0.48 | 0.48 | 31 | 1019.3 |
| 20260507024503 | 13 | 301 | 0.0 | 1.6 | 0.00 | 0.48 | 0.48 | 30 | 1019.3 |
| 20260507023603 | 13 | 0 | 0.0 | 0.0 | 0.00 | 0.48 | 0.48 | 27 | 1019.1 |
| 20260507022703 | 14 | 301 | 0.0 | 1.6 | 0.00 | 0.48 | 0.48 | 27 | 1019.1 |
| 20260507021823 | 15 | 301 | 0.0 | 1.6 | 0.00 | 0.48 | 0.48 | 26 | 1019.1 |
| 20260507020902 | 15 | 301 | 0.0 | 1.6 | 0.00 | 0.48 | 0.48 | 25 | 1019.1 |
| 20260507020003 | 16 | 301 | 1.6 | 6.4 | 0.00 | 0.48 | 0.48 | 24 | 1019.1 |
| 20260507015403 | 17 | 298 | 1.6 | 6.4 | 0.00 | 0.48 | 0.48 | 23 | 1019.1 |
| 20260507014503 | 17 | 301 | 1.6 | 8.0 | 0.00 | 0.48 | 0.48 | 23 | 1019.2 |
| 20260507013603 | 17 | 298 | 1.6 | 6.4 | 0.00 | 0.48 | 0.48 | 22 | 1019.2 |
| 20260507012703 | 17 | 299 | 1.6 | 6.4 | 0.00 | 0.48 | 0.48 | 23 | 1019.2 |
| 20260507011803 | 17 | 309 | 0.0 | 4.8 | 0.00 | 0.48 | 0.48 | 23 | 1019.1 |
| 20260507010903 | 17 | 302 | 3.2 | 9.7 | 0.00 | 0.48 | 0.48 | 23 | 1019.2 |
| 20260507010024 | 17 | 305 | 3.2 | 8.0 | 0.00 | 0.48 | 0.48 | 24 | 1019.1 |
| 20260507005424 | 16 | 305 | 4.8 | 9.7 | 0.00 | 0.48 | 0.48 | 24 | 1019.1 |
| 20260507004503 | 16 | 305 | 4.8 | 14.5 | 0.00 | 0.48 | 0.48 | 25 | 1019.1 |
| 20260507003603 | 16 | 306 | 6.4 | 12.9 | 0.00 | 0.48 | 0.48 | 25 | 1019.1 |
| 20260507002704 | 16 | 305 | 8.0 | 14.5 | 0.00 | 0.48 | 0.48 | 25 | 1019.0 |
| 20260507001803 | 16 | 302 | 6.4 | 14.5 | 0.00 | 0.48 | 0.48 | 25 | 1018.9 |
| 20260507000903 | 16 | 303 | 6.4 | 12.9 | 0.00 | 0.48 | 0.48 | 25 | 1018.8 |
| 20260507000024 | 16 | 305 | 8.0 | 16.1 | 0.00 | 0.48 | 0.48 | 25 | 1018.8 |
| 20260506235402 | 16 | 303 | 8.0 | 16.1 | 0.00 | 0.48 | 0.48 | 25 | 1018.7 |
| 20260506234503 | 16 | 300 | 8.0 | 14.5 | 0.00 | 0.48 | 0.48 | 24 | 1018.6 |
| 20260506233603 | 16 | 301 | 8.0 | 17.7 | 0.00 | 0.48 | 0.48 | 26 | 1018.7 |
| 20260506232703 | 16 | 303 | 11.3 | 25.7 | 0.00 | 0.48 | 0.48 | 26 | 1018.6 |
| 20260506231802 | 17 | 302 | 6.4 | 14.5 | 0.00 | 0.48 | 0.48 | 26 | 1018.5 |
| 20260506230902 | 17 | 306 | 4.8 | 12.9 | 0.00 | 0.48 | 0.48 | 26 | 1018.6 |
| 20260506230024 | 16 | 308 | 8.0 | 17.7 | 0.00 | 0.48 | 0.48 | 26 | 1018.6 |
| 20260506225423 | 16 | 308 | 8.0 | 17.7 | 0.00 | 0.48 | 0.48 | 25 | 1018.6 |
| 20260506224503 | 16 | 306 | 8.0 | 16.1 | 0.00 | 0.48 | 0.48 | 26 | 1018.5 |
| 20260506223602 | 16 | 301 | 11.3 | 20.9 | 0.00 | 0.48 | 0.48 | 26 | 1018.7 |
| 20260506222702 | 16 | 307 | 9.7 | 20.9 | 0.00 | 0.48 | 0.48 | 26 | 1018.4 |
| 20260506221802 | 16 | 303 | 8.0 | 17.7 | 0.00 | 0.48 | 0.48 | 26 | 1018.6 |
| 20260506220924 | 16 | 305 | 9.7 | 20.9 | 0.00 | 0.48 | 0.48 | 26 | 1018.8 |
| 20260506220003 | 16 | 305 | 6.4 | 19.3 | 0.00 | 0.48 | 0.48 | 26 | 1018.7 |
| 20260506215403 | 16 | 303 | 9.7 | 20.9 | 0.00 | 0.48 | 0.48 | 26 | 1018.8 |
| 20260506214503 | 16 | 308 | 8.0 | 16.1 | 0.00 | 0.48 | 0.48 | 26 | 1018.7 |
| 20260506213602 | 16 | 311 | 6.4 | 14.5 | 0.00 | 0.48 | 0.48 | 26 | 1018.9 |
| 20260506212724 | 16 | 303 | 6.4 | 14.5 | 0.00 | 0.48 | 0.48 | 28 | 1018.9 |
| 20260506211802 | 16 | 300 | 6.4 | 19.3 | 0.00 | 0.48 | 0.48 | 28 | 1018.7 |
| 20260506210902 | 16 | 303 | 6.4 | 17.7 | 0.00 | 0.48 | 0.48 | 26 | 1018.6 |
| 20260506210003 | 16 | 304 | 1.6 | 11.3 | 0.00 | 0.48 | 0.48 | 29 | 1018.8 |
| 20260506205403 | 15 | 290 | 4.8 | 17.7 | 0.00 | 0.48 | 0.48 | 27 | 1018.7 |
| 20260506204503 | 15 | 300 | 6.4 | 16.1 | 0.00 | 0.48 | 0.48 | 25 | 1018.8 |
| 20260506203602 | 15 | 303 | 6.4 | 17.7 | 0.00 | 0.48 | 0.48 | 26 | 1018.7 |
| 20260506202723 | 16 | 283 | 3.2 | 16.1 | 0.00 | 0.48 | 0.48 | 26 | 1018.7 |
| 20260506201802 | 16 | 306 | 1.6 | 9.7 | 0.00 | 0.48 | 0.48 | 31 | 1018.9 |
| 20260506200902 | 15 | 306 | 3.2 | 9.7 | 0.00 | 0.48 | 0.48 | 34 | 1018.8 |
| 20260506200004 | 15 | 299 | 3.2 | 11.3 | 0.00 | 0.48 | 0.48 | 30 | 1018.7 |
| 20260506195424 | 15 | 300 | 3.2 | 11.3 | 0.00 | 0.48 | 0.48 | 27 | 1018.7 |
| 20260506194503 | 16 | 338 | 1.6 | 4.8 | 0.00 | 0.48 | 0.48 | 30 | 1018.8 |
| 20260506193602 | 15 | 65 | 1.6 | 9.7 | 0.00 | 0.48 | 0.48 | 33 | 1018.9 |
| 20260506192702 | 15 | 300 | 1.6 | 8.0 | 0.00 | 0.48 | 0.48 | 31 | 1018.9 |
| 20260506191802 | 15 | 298 | 1.6 | 6.4 | 0.00 | 0.48 | 0.48 | 30 | 1018.8 |
| 20260506190902 | 16 | 134 | 1.6 | 8.0 | 0.00 | 0.48 | 0.48 | 30 | 1018.9 |
| 20260506190024 | 16 | 134 | 1.6 | 9.7 | 0.00 | 0.48 | 0.48 | 33 | 1018.9 |
| 20260506185402 | 15 | 132 | 0.0 | 4.8 | 0.00 | 0.48 | 0.48 | 35 | 1018.9 |
| 20260506184503 | 14 | 357 | 1.6 | 6.4 | 0.00 | 0.48 | 0.48 | 36 | 1018.9 |
| 20260506183603 | 13 | 308 | 3.2 | 9.7 | 0.00 | 0.48 | 0.48 | 35 | 1018.9 |
| 20260506182702 | 13 | 313 | 3.2 | 9.7 | 0.00 | 0.48 | 0.48 | 37 | 1018.9 |
| 20260506181803 | 13 | 301 | 3.2 | 8.0 | 0.00 | 0.48 | 0.48 | 34 | 1018.8 |
| 20260506180902 | 15 | 351 | 1.6 | 6.4 | 0.00 | 0.48 | 0.48 | 36 | 1018.9 |
| 20260506180004 | 14 | 93 | 0.0 | 6.4 | 0.00 | 0.48 | 0.48 | 36 | 1018.8 |
| 20260506175402 | 13 | 355 | 0.0 | 3.2 | 0.00 | 0.48 | 0.48 | 39 | 1018.8 |
| 20260506174503 | 13 | 7 | 0.0 | 6.4 | 0.00 | 0.48 | 0.48 | 40 | 1018.7 |
| 20260506173602 | 13 | 32 | 1.6 | 8.0 | 0.00 | 0.48 | 0.48 | 42 | 1018.7 |
| 20260506172702 | 12 | 338 | 0.0 | 4.8 | 0.00 | 0.48 | 0.48 | 42 | 1018.6 |
| 20260506171802 | 12 | 318 | 1.6 | 6.4 | 0.00 | 0.48 | 0.48 | 42 | 1018.6 |
| 20260506170902 | 11 | 299 | 3.2 | 9.7 | 0.00 | 0.48 | 0.48 | 40 | 1018.4 |
| 20260506170003 | 12 | 22 | 0.0 | 3.2 | 0.00 | 0.48 | 0.48 | 44 | 1018.4 |
| 20260506165402 | 11 | 304 | 1.6 | 6.4 | 0.00 | 0.48 | 0.48 | 46 | 1018.3 |
| 20260506164503 | 11 | 309 | 1.6 | 8.0 | 0.00 | 0.48 | 0.48 | 45 | 1018.2 |
| 20260506163602 | 12 | 62 | 1.6 | 6.4 | 0.00 | 0.48 | 0.48 | 44 | 1018.1 |
| 20260506162703 | 12 | 11 | 0.0 | 3.2 | 0.00 | 0.48 | 0.48 | 48 | 1018.0 |
| 20260506161802 | 11 | 358 | 0.0 | 3.2 | 0.00 | 0.48 | 0.48 | 52 | 1017.9 |
| 20260506160902 | 11 | 43 | 0.0 | 6.4 | 0.00 | 0.48 | 0.48 | 50 | 1017.9 |
| 20260506160003 | 10 | 306 | 0.0 | 4.8 | 0.00 | 0.51 | 0.48 | 48 | 1017.8 |
| 20260506155402 | 10 | 96 | 0.0 | 6.4 | 0.00 | 0.51 | 0.48 | 48 | 1017.7 |
| 20260506154503 | 10 | 299 | 1.6 | 9.7 | 0.00 | 0.53 | 0.48 | 50 | 1017.6 |
| 20260506153602 | 10 | 298 | 1.6 | 6.4 | 0.00 | 0.58 | 0.48 | 50 | 1017.5 |
| 20260506152702 | 10 | 297 | 0.0 | 4.8 | 0.00 | 0.64 | 0.48 | 48 | 1017.4 |
| 20260506151802 | 9 | 296 | 1.6 | 4.8 | 0.00 | 0.69 | 0.48 | 49 | 1017.5 |
| 20260506150902 | 9 | 281 | 0.0 | 1.6 | 0.00 | 0.74 | 0.48 | 54 | 1017.3 |
| 20260506150003 | 8 | 310 | 1.6 | 4.8 | 0.00 | 0.81 | 0.48 | 56 | 1017.1 |
| 20260506145402 | 8 | 310 | 1.6 | 4.8 | 0.00 | 0.84 | 0.48 | 56 | 1017.1 |
| 20260506144503 | 8 | 305 | 0.0 | 4.8 | 0.00 | 0.89 | 0.48 | 60 | 1017.0 |
| 20260506143603 | 7 | 294 | 0.0 | 3.2 | 0.00 | 0.94 | 0.48 | 63 | 1017.0 |
| 20260506142702 | 7 | 329 | 0.0 | 1.6 | 0.00 | 0.97 | 0.48 | 69 | 1017.0 |
| 20260506141802 | 7 | 280 | 0.0 | 1.6 | 0.00 | 0.97 | 0.48 | 70 | 1016.8 |
| 20260506140923 | 7 | 280 | 0.0 | 1.6 | 0.00 | 0.97 | 0.48 | 72 | 1016.7 |
| 20260506140024 | 6 | 302 | 0.0 | 1.6 | 0.00 | 0.99 | 0.48 | 73 | 1016.6 |
| 20260506135402 | 6 | 303 | 0.0 | 3.2 | 0.00 | 1.02 | 0.48 | 73 | 1016.5 |
| 20260506134524 | 5 | 304 | 0.0 | 1.6 | 0.00 | 1.04 | 0.48 | 75 | 1016.4 |
| 20260506133603 | 5 | 0 | 0.0 | 0.0 | 0.00 | 1.07 | 0.48 | 76 | 1016.4 |
| 20260506132702 | 5 | 29 | 0.0 | 1.6 | 0.00 | 1.07 | 0.48 | 78 | 1016.3 |
| 20260506131802 | 5 | 70 | 0.0 | 3.2 | 0.00 | 1.09 | 0.48 | 82 | 1016.4 |
| 20260506130902 | 5 | 108 | 0.0 | 1.6 | 0.00 | 1.09 | 0.48 | 81 | 1016.2 |
| 20260506130024 | 6 | 0 | 0.0 | 0.0 | 0.00 | 1.09 | 0.48 | 78 | 1015.9 |
| 20260506125402 | 6 | 0 | 0.0 | 0.0 | 0.00 | 1.09 | 0.48 | 77 | 1015.8 |
| 20260506124524 | 6 | 0 | 0.0 | 0.0 | 0.00 | 1.12 | 0.48 | 76 | 1015.7 |
| 20260506123602 | 6 | 120 | 0.0 | 3.2 | 0.00 | 1.12 | 0.48 | 72 | 1015.5 |
| 20260506122702 | 6 | 120 | 0.0 | 3.2 | 0.00 | 1.12 | 0.48 | 67 | 1015.3 |
| 20260506121802 | 6 | 131 | 0.0 | 1.6 | 0.00 | 1.12 | 0.48 | 61 | 1015.1 |
| 20260506120902 | 7 | 53 | 0.0 | 3.2 | 0.00 | 1.12 | 0.48 | 60 | 1014.8 |
| 20260506120003 | 7 | 27 | 1.6 | 16.1 | 0.00 | 1.12 | 0.48 | 61 | 1015.0 |
| 20260506115402 | 7 | 49 | 1.6 | 16.1 | 0.00 | 1.12 | 0.48 | 60 | 1015.0 |
| 20260506114503 | 7 | 43 | 3.2 | 14.5 | 0.00 | 1.12 | 0.48 | 60 | 1014.9 |
| 20260506113603 | 6 | 54 | 3.2 | 24.1 | 0.00 | 1.12 | 0.48 | 62 | 1015.0 |
| 20260506112702 | 6 | 46 | 3.2 | 17.7 | 0.00 | 1.12 | 0.48 | 64 | 1014.8 |
| 20260506111803 | 6 | 329 | 3.2 | 14.5 | 0.00 | 1.12 | 0.48 | 65 | 1014.7 |
| 20260506110924 | 7 | 310 | 1.6 | 8.0 | 0.00 | 1.12 | 0.48 | 67 | 1014.6 |
| 20260506110003 | 6 | 304 | 3.2 | 12.9 | 0.00 | 1.12 | 0.48 | 70 | 1014.4 |
| 20260506105423 | 6 | 311 | 1.6 | 6.4 | 0.00 | 1.12 | 0.48 | 73 | 1014.2 |
| 20260506104524 | 6 | 312 | 1.6 | 6.4 | 0.08 | 1.12 | 0.48 | 75 | 1014.0 |
| 20260506103602 | 6 | 340 | 1.6 | 9.7 | 0.33 | 1.12 | 0.48 | 75 | 1013.8 |
| 20260506102703 | 6 | 324 | 1.6 | 11.3 | 0.43 | 1.12 | 0.48 | 77 | 1013.4 |
| 20260506101823 | 6 | 304 | 3.2 | 9.7 | 0.46 | 1.12 | 0.48 | 79 | 1013.4 |
| 20260506100923 | 6 | 327 | 1.6 | 4.8 | 0.46 | 1.14 | 0.48 | 85 | 1013.4 |
| 20260506100003 | 6 | 130 | 0.0 | 1.6 | 0.46 | 1.14 | 0.48 | 85 | 1013.2 |
| 20260506095402 | 6 | 88 | 0.0 | 8.0 | 0.46 | 1.17 | 0.48 | 84 | 1013.2 |
| 20260506094503 | 6 | 313 | 1.6 | 11.3 | 0.38 | 1.09 | 0.41 | 82 | 1013.9 |
| 20260506093603 | 7 | 304 | 4.8 | 16.1 | 0.13 | 0.84 | 0.15 | 77 | 1013.7 |
| 20260506092702 | 8 | 306 | 1.6 | 9.7 | 0.03 | 0.74 | 0.05 | 75 | 1013.0 |
| 20260506091802 | 9 | 111 | 0.0 | 3.2 | 0.00 | 0.71 | 0.03 | 80 | 1012.7 |
| 20260506090902 | 9 | 166 | 0.0 | 3.2 | 0.00 | 0.71 | 0.03 | 80 | 1012.2 |
| 20260506090003 | 9 | 145 | 0.0 | 1.6 | 0.00 | 0.71 | 0.03 | 78 | 1012.0 |
| 20260506085402 | 9 | 165 | 0.0 | 3.2 | 0.00 | 0.71 | 0.03 | 78 | 1011.8 |
| 20260506084524 | 9 | 153 | 0.0 | 3.2 | 0.03 | 0.71 | 0.03 | 79 | 1011.9 |
| 20260506083602 | 9 | 0 | 0.0 | 0.0 | 0.03 | 0.71 | 0.03 | 79 | 1011.9 |
| 20260506082723 | 9 | 0 | 0.0 | 0.0 | 0.03 | 0.71 | 0.03 | 78 | 1011.7 |
| 20260506081802 | 9 | 71 | 0.0 | 1.6 | 0.03 | 0.71 | 0.03 | 78 | 1011.8 |
| 20260506080903 | 9 | 63 | 0.0 | 4.8 | 0.03 | 0.71 | 0.03 | 78 | 1011.6 |